Time;durP1;ratioP1;P1;durP2;ratioP2;P2;SDS_P1;SDS_P2;PMS_P1;PMS_P2;Temp;Humidity;BMP_temperature;BMP_pressure;BME280_temperature;BME280_humidity;BME280_pressure;Samples;Min_cycle;Max_cycle;Signal;HPM_P1;HPM_P2
2023/01/02 00:01:52;;;;;;;;;1.00;1.00;;;;;20.35;61.62;101234.05;105503;1299;22271;-68
2023/01/02 00:04:19;;;;;;;;;2.00;2.00;;;;;20.35;61.65;101225.09;105498;1282;18677;-69
2023/01/02 00:06:47;;;;;;;;;1.00;1.00;;;;;20.35;61.47;101225.09;105450;1282;19313;-68
2023/01/02 00:09:17;;;;;;;;;1.00;1.00;;;;;20.36;61.60;101219.08;105492;1297;22380;-68
2023/01/02 00:11:44;;;;;;;;;2.00;2.00;;;;;20.35;61.53;101218.26;105479;1298;18821;-69
2023/01/02 00:14:11;;;;;;;;;2.00;2.00;;;;;20.35;61.64;101212.20;105528;1282;20696;-68
2023/01/02 00:16:39;;;;;;;;;1.00;1.00;;;;;20.35;61.54;101214.01;105573;1282;18524;-69
2023/01/02 00:19:07;;;;;;;;;1.00;1.00;;;;;20.35;61.64;101215.11;105460;1298;22046;-68
2023/01/02 00:21:34;;;;;;;;;;;;;;;20.34;61.61;101215.56;105493;1290;22785;-68
2023/01/02 00:24:02;;;;;;;;;2.00;2.00;;;;;20.34;61.54;101207.58;105606;1297;18351;-69
2023/01/02 00:26:29;;;;;;;;;1.00;1.00;;;;;20.34;61.34;101208.48;105462;1297;18843;-69
2023/01/02 00:28:57;;;;;;;;;1.00;1.00;;;;;20.34;61.47;101213.06;105446;1274;19945;-69
2023/01/02 00:31:24;;;;;;;;;;;;;;;20.34;61.39;101214.70;105462;1281;18363;-69
2023/01/02 00:33:52;;;;;;;;;4.00;2.00;;;;;20.34;61.58;101217.74;105566;1291;21381;-69
2023/01/02 00:36:19;;;;;;;;;1.00;1.00;;;;;20.35;61.61;101214.58;105522;1290;20782;-69
2023/01/02 00:38:47;;;;;;;;;;;;;;;20.35;61.52;101212.64;105497;1300;22801;-68
2023/01/02 00:41:14;;;;;;;;;1.00;1.00;;;;;20.35;61.63;101213.89;105477;1283;18182;-68
2023/01/02 00:43:42;;;;;;;;;;;;;;;20.35;61.59;101218.80;105492;1282;21098;-67
2023/01/02 00:46:10;;;;;;;;;1.00;1.00;;;;;20.34;61.85;101219.05;105467;1298;18516;-68
2023/01/02 00:48:37;;;;;;;;;1.00;1.00;;;;;20.34;61.82;101217.45;105584;1282;18779;-69
2023/01/02 00:51:04;;;;;;;;;1.00;1.00;;;;;20.34;61.74;101218.00;105596;1301;19257;-70
2023/01/02 00:53:32;;;;;;;;;2.00;2.00;;;;;20.34;61.73;101218.14;105513;1288;19479;-66
2023/01/02 00:55:59;;;;;;;;;1.00;1.00;;;;;20.33;61.66;101215.66;105487;1294;18776;-67
2023/01/02 00:58:27;;;;;;;;;2.00;2.00;;;;;20.33;61.73;101216.26;105471;1282;19706;-67
2023/01/02 01:00:54;;;;;;;;;1.00;1.00;;;;;20.33;61.77;101225.68;105457;1275;18623;-67
2023/01/02 01:03:22;;;;;;;;;2.00;2.00;;;;;20.34;61.67;101232.70;105499;1289;19671;-69
2023/01/02 01:05:49;;;;;;;;;1.00;1.00;;;;;20.34;61.75;101230.34;105501;1297;22892;-68
2023/01/02 01:08:16;;;;;;;;;1.00;1.00;;;;;20.33;61.76;101229.45;105477;1282;19638;-68
2023/01/02 01:10:44;;;;;;;;;1.50;1.50;;;;;20.32;61.76;101229.02;105529;1279;18479;-68
2023/01/02 01:13:11;;;;;;;;;2.00;2.00;;;;;20.32;61.89;101233.54;105433;1297;22509;-68
2023/01/02 01:15:39;;;;;;;;;2.00;1.00;;;;;20.33;61.93;101236.40;105514;1289;18363;-67
2023/01/02 01:18:06;;;;;;;;;1.00;1.00;;;;;20.33;61.90;101247.86;105632;1297;18709;-67
2023/01/02 01:20:34;;;;;;;;;2.00;2.00;;;;;20.33;61.88;101250.58;105481;1297;19261;-68
2023/01/02 01:23:01;;;;;;;;;1.50;1.50;;;;;20.34;61.99;101260.64;105494;1282;18579;-68
2023/01/02 01:25:28;;;;;;;;;1.00;1.00;;;;;20.33;61.91;101265.80;105470;1282;22369;-68
2023/01/02 01:27:56;;;;;;;;;1.00;1.00;;;;;20.33;61.87;101269.10;105559;1290;23945;-68
2023/01/02 01:30:23;;;;;;;;;1.00;1.00;;;;;20.33;61.69;101270.33;105403;1279;18331;-68
2023/01/02 01:32:51;;;;;;;;;1.00;1.00;;;;;20.33;61.93;101273.12;105590;1297;18829;-68
2023/01/02 01:35:18;;;;;;;;;1.00;1.00;;;;;20.32;61.94;101277.30;105512;1289;23116;-68
2023/01/02 01:37:46;;;;;;;;;2.00;2.00;;;;;20.32;61.86;101278.23;105477;1297;18380;-67
2023/01/02 01:40:13;;;;;;;;;1.00;1.00;;;;;20.31;61.88;101274.86;105468;1282;18554;-68
2023/01/02 01:42:40;;;;;;;;;;;;;;;20.32;61.84;101269.51;105438;1282;22251;-68
2023/01/02 01:45:08;;;;;;;;;1.00;1.00;;;;;20.32;61.67;101272.56;105489;1297;18292;-68
2023/01/02 01:47:35;;;;;;;;;1.00;1.00;;;;;20.32;61.85;101266.77;105449;1275;20313;-68
2023/01/02 01:50:03;;;;;;;;;1.50;1.50;;;;;20.33;61.96;101265.84;105498;1300;19356;-69
2023/01/02 01:52:30;;;;;;;;;1.00;1.00;;;;;20.33;61.79;101262.70;105464;1280;18437;-69
2023/01/02 01:54:57;;;;;;;;;1.00;1.00;;;;;20.32;61.86;101256.98;105452;1282;18463;-69
2023/01/02 01:57:25;;;;;;;;;1.00;1.00;;;;;20.32;61.88;101259.33;105461;1300;19303;-68
2023/01/02 01:59:52;;;;;;;;;1.00;1.00;;;;;20.32;62.14;101259.57;105504;1297;18620;-67
2023/01/02 02:02:20;;;;;;;;;1.00;1.00;;;;;20.32;61.98;101261.55;105517;1283;22450;-68
2023/01/02 02:04:47;;;;;;;;;;;;;;;20.31;62.06;101259.98;105534;1289;19836;-69
2023/01/02 02:07:15;;;;;;;;;1.50;1.00;;;;;20.32;61.85;101268.11;105449;1282;21546;-68
2023/01/02 02:09:42;;;;;;;;;1.00;1.00;;;;;20.32;61.97;101266.82;105565;1294;18533;-68
2023/01/02 02:12:09;;;;;;;;;1.00;1.00;;;;;20.31;62.12;101261.64;105483;1294;19481;-69
2023/01/02 02:14:37;;;;;;;;;1.00;1.00;;;;;20.32;62.08;101257.02;105538;1294;23670;-68
2023/01/02 02:17:04;;;;;;;;;1.00;1.00;;;;;20.31;61.93;101248.03;105527;1301;18480;-69
2023/01/02 02:19:32;;;;;;;;;1.00;1.00;;;;;20.31;62.07;101245.34;105483;1282;19294;-67
2023/01/02 02:21:59;;;;;;;;;;;;;;;20.31;61.76;101241.30;105414;1275;20061;-69
2023/01/02 02:24:27;;;;;;;;;1.00;1.00;;;;;20.32;61.87;101249.02;105409;1289;18428;-69
2023/01/02 02:26:55;;;;;;;;;1.00;1.00;;;;;20.31;62.00;101237.18;105579;1297;21041;-68
2023/01/02 02:29:22;;;;;;;;;2.00;2.00;;;;;20.31;61.81;101227.86;105463;1282;18433;-69
2023/01/02 02:31:49;;;;;;;;;1.00;1.00;;;;;20.31;61.98;101227.75;105520;1282;18513;-69
2023/01/02 02:34:17;;;;;;;;;1.00;1.00;;;;;20.30;61.97;101229.42;105475;1297;19278;-68
2023/01/02 02:36:44;;;;;;;;;1.00;1.00;;;;;20.31;62.05;101235.48;105440;1300;18475;-68
2023/01/02 02:39:12;;;;;;;;;2.00;2.00;;;;;20.31;62.07;101227.92;105496;1282;21497;-68
2023/01/02 02:41:39;;;;;;;;;2.00;2.00;;;;;20.30;62.03;101224.52;105497;1297;20609;-68
2023/01/02 02:44:06;;;;;;;;;1.00;1.00;;;;;20.30;62.07;101220.88;105552;1289;20226;-68
2023/01/02 02:46:34;;;;;;;;;1.00;1.00;;;;;20.30;61.97;101220.58;105468;1275;18482;-68
2023/01/02 02:49:01;;;;;;;;;;;;;;;20.31;62.07;101222.11;105586;1288;20815;-68
2023/01/02 02:51:29;;;;;;;;;2.00;2.00;;;;;20.31;61.87;101213.02;105453;1292;21330;-69
2023/01/02 02:53:56;;;;;;;;;2.00;2.00;;;;;20.30;61.99;101200.23;105588;1287;18581;-68
2023/01/02 02:56:24;;;;;;;;;1.00;1.00;;;;;20.30;61.94;101202.95;105524;1297;22194;-67
2023/01/02 02:58:51;;;;;;;;;2.00;2.00;;;;;20.31;61.89;101200.88;105459;1298;18395;-68
2023/01/02 03:01:18;;;;;;;;;2.00;2.00;;;;;20.31;62.09;101199.81;105475;1291;20303;-68
2023/01/02 03:03:46;;;;;;;;;2.00;2.00;;;;;20.30;62.12;101193.02;105548;1282;22146;-68
2023/01/02 03:06:13;;;;;;;;;2.00;2.00;;;;;20.30;62.09;101186.62;105503;1298;19676;-68
2023/01/02 03:08:41;;;;;;;;;;;;;;;20.30;61.90;101181.00;105476;1297;18443;-69
2023/01/02 03:11:08;;;;;;;;;1.00;1.00;;;;;20.30;62.03;101178.31;105479;1283;22232;-68
2023/01/02 03:13:36;;;;;;;;;2.00;2.00;;;;;20.30;62.02;101165.59;105498;1300;18564;-69
2023/01/02 03:16:03;;;;;;;;;1.00;1.00;;;;;20.30;61.96;101161.94;105609;1298;18667;-69
2023/01/02 03:18:31;;;;;;;;;1.00;1.00;;;;;20.30;62.05;101162.33;105452;1275;19429;-69
2023/01/02 03:20:58;;;;;;;;;1.00;1.00;;;;;20.30;62.06;101156.34;105584;1297;18539;-68
2023/01/02 03:23:26;;;;;;;;;2.00;2.00;;;;;20.29;61.95;101154.94;105481;1291;18585;-67
2023/01/02 03:25:53;;;;;;;;;2.00;2.00;;;;;20.30;61.99;101147.86;105486;1297;19337;-69
2023/01/02 03:28:21;;;;;;;;;2.00;1.00;;;;;20.29;61.91;101143.54;105421;1281;20942;-66
2023/01/02 03:30:48;;;;;;;;;1.00;1.00;;;;;20.29;62.12;101145.31;105467;1298;18510;-68
2023/01/02 03:33:15;;;;;;;;;2.00;2.00;;;;;20.29;61.95;101144.77;105516;1275;19354;-67
2023/01/02 03:35:43;;;;;;;;;2.00;2.00;;;;;20.29;62.00;101146.06;105495;1298;19699;-67
2023/01/02 03:38:11;;;;;;;;;2.00;2.00;;;;;20.30;61.84;101143.13;105472;1281;18814;-67
2023/01/02 03:40:38;;;;;;;;;2.00;2.00;;;;;20.30;61.95;101143.30;105466;1289;22152;-68
2023/01/02 03:43:05;;;;;;;;;;;;;;;20.30;61.97;101140.58;105432;1301;18267;-69
2023/01/02 03:45:33;;;;;;;;;;;;;;;20.29;61.75;101131.77;105457;1297;18286;-68
2023/01/02 03:48:00;;;;;;;;;2.00;1.00;;;;;20.29;61.91;101128.87;105468;1282;21830;-68
2023/01/02 03:50:28;;;;;;;;;1.50;1.50;;;;;20.29;62.00;101131.77;105475;1298;18400;-67
2023/01/02 03:52:55;;;;;;;;;1.00;1.00;;;;;20.29;61.93;101135.41;105433;1282;20079;-68
2023/01/02 03:55:23;;;;;;;;;1.00;1.00;;;;;20.29;62.03;101131.38;105565;1291;22034;-68
2023/01/02 03:57:50;;;;;;;;;1.00;1.00;;;;;20.29;62.01;101124.15;105556;1298;18408;-68
2023/01/02 04:00:17;;;;;;;;;1.00;1.00;;;;;20.29;61.71;101128.84;105641;1297;18503;-68
2023/01/02 04:02:45;;;;;;;;;2.00;2.00;;;;;20.29;61.82;101128.49;105463;1282;19690;-68
2023/01/02 04:05:12;;;;;;;;;2.00;2.00;;;;;20.28;61.93;101124.00;105523;1301;19086;-68
2023/01/02 04:07:40;;;;;;;;;1.00;1.00;;;;;20.29;61.88;101120.36;105575;1275;18512;-67
2023/01/02 04:10:07;;;;;;;;;2.00;2.00;;;;;20.29;61.87;101122.14;105462;1296;19227;-68
2023/01/02 04:12:35;;;;;;;;;1.00;1.00;;;;;20.28;61.77;101116.90;105453;1282;18356;-68
2023/01/02 04:15:02;;;;;;;;;1.50;1.50;;;;;20.28;61.90;101116.24;105500;1294;18780;-68
2023/01/02 04:17:30;;;;;;;;;2.00;2.00;;;;;20.28;61.81;101124.21;105464;1297;20969;-68
2023/01/02 04:19:57;;;;;;;;;2.00;2.00;;;;;20.28;61.72;101120.77;105528;1281;18299;-68
2023/01/02 04:22:24;;;;;;;;;2.00;2.00;;;;;20.29;61.84;101119.78;105564;1283;18885;-68
2023/01/02 04:24:52;;;;;;;;;2.00;2.00;;;;;20.28;61.96;101110.40;105581;1297;20898;-68
2023/01/02 04:27:19;;;;;;;;;1.00;1.00;;;;;20.29;61.95;101106.35;105497;1301;20443;-68
2023/01/02 04:29:47;;;;;;;;;1.50;1.50;;;;;20.28;61.83;101100.45;105464;1298;18833;-67
2023/01/02 04:32:14;;;;;;;;;1.00;1.00;;;;;20.28;61.86;101103.00;105467;1289;19304;-67
2023/01/02 04:34:41;;;;;;;;;2.00;2.00;;;;;20.28;61.95;101111.16;105489;1294;18275;-67
2023/01/02 04:37:09;;;;;;;;;1.00;1.00;;;;;20.28;61.77;101110.96;105527;1282;18505;-67
2023/01/02 04:39:36;;;;;;;;;1.50;1.50;;;;;20.27;61.97;101109.29;105386;1289;22127;-68
2023/01/02 04:42:04;;;;;;;;;4.00;4.00;;;;;20.28;61.75;101107.52;105449;1297;18362;-68
2023/01/02 04:44:31;;;;;;;;;1.00;1.00;;;;;20.27;61.88;101104.31;105520;1282;18800;-68
2023/01/02 04:46:59;;;;;;;;;;;;;;;20.26;61.97;101100.48;105464;1282;19346;-68
2023/01/02 04:49:26;;;;;;;;;1.00;1.00;;;;;20.27;61.77;101095.29;105515;1296;19156;-68
2023/01/02 04:51:54;;;;;;;;;2.00;2.00;;;;;20.27;61.95;101086.18;105622;1297;18991;-66
2023/01/02 04:54:21;;;;;;;;;1.50;1.50;;;;;20.27;61.97;101088.91;105632;1289;19584;-66
2023/01/02 04:56:49;;;;;;;;;1.00;1.00;;;;;20.27;61.94;101088.01;105509;1282;18390;-68
2023/01/02 04:59:16;;;;;;;;;1.00;1.00;;;;;20.28;61.83;101081.08;105546;1297;18496;-67
2023/01/02 05:01:44;;;;;;;;;2.00;2.00;;;;;20.28;61.91;101075.61;105521;1282;21925;-67
2023/01/02 05:04:11;;;;;;;;;;;;;;;20.27;61.88;101075.43;105590;1282;18673;-67
2023/01/02 05:06:38;;;;;;;;;1.50;1.50;;;;;20.27;61.66;101075.46;105477;1282;18328;-67
2023/01/02 05:09:06;;;;;;;;;2.00;2.00;;;;;20.27;61.75;101072.36;105614;1297;20952;-67
2023/01/02 05:11:33;;;;;;;;;1.00;1.00;;;;;20.27;61.96;101062.94;105589;1291;18420;-68
2023/01/02 05:14:01;;;;;;;;;1.00;1.00;;;;;20.27;61.75;101053.52;105569;1297;18483;-67
2023/01/02 05:16:28;;;;;;;;;2.00;2.00;;;;;20.27;61.72;101044.13;105450;1294;24077;-67
2023/01/02 05:18:56;;;;;;;;;1.50;1.50;;;;;20.26;61.86;101037.42;105430;1282;21421;-68
2023/01/02 05:24:08;;;;;;;;;1.00;1.00;;;;;20.26;61.83;101037.11;105490;1291;20569;-67
2023/01/02 05:26:36;;;;;;;;;1.00;1.00;;;;;20.27;61.71;101035.59;105495;1289;18403;-67
2023/01/02 05:29:03;;;;;;;;;2.00;2.00;;;;;20.26;61.84;101028.23;105487;1283;88146;-67
2023/01/02 05:31:31;;;;;;;;;4.00;2.00;;;;;20.27;61.55;101029.56;105496;1292;32545;-67
2023/01/02 05:33:58;;;;;;;;;1.50;1.50;;;;;20.26;61.79;101025.14;105467;1282;18332;-68
2023/01/02 05:36:26;;;;;;;;;1.50;1.50;;;;;20.26;61.75;101023.34;105415;1300;18811;-68
2023/01/02 05:38:53;;;;;;;;;2.00;2.00;;;;;20.26;61.81;101021.23;105505;1294;19580;-68
2023/01/02 05:41:20;;;;;;;;;2.00;2.00;;;;;20.26;61.64;101015.75;105477;1298;21219;-68
2023/01/02 05:43:48;;;;;;;;;2.00;2.00;;;;;20.26;61.75;101008.33;105521;1289;22257;-68
2023/01/02 05:46:15;;;;;;;;;1.00;1.00;;;;;20.26;61.75;101005.95;105569;1297;19300;-69
2023/01/02 05:48:43;;;;;;;;;1.50;1.50;;;;;20.25;61.88;100998.60;105466;1298;18388;-68
2023/01/02 05:51:10;;;;;;;;;2.00;2.00;;;;;20.25;61.75;100983.91;105606;1297;18496;-68
2023/01/02 05:53:38;;;;;;;;;1.00;1.00;;;;;20.25;61.89;100975.02;105446;1275;19300;-69
2023/01/02 05:56:05;;;;;;;;;2.00;2.00;;;;;20.25;61.54;100973.31;105476;1289;18415;-68
2023/01/02 05:58:32;;;;;;;;;2.00;2.00;;;;;20.26;61.70;100971.11;105494;1298;19844;-68
2023/01/02 06:01:00;;;;;;;;;2.00;2.00;;;;;20.25;61.84;100962.84;105440;1305;19274;-69
2023/01/02 06:03:27;;;;;;;;;2.00;2.00;;;;;20.27;61.67;100952.33;105610;1282;18535;-69
2023/01/02 06:05:55;;;;;;;;;2.00;2.00;;;;;20.26;61.62;100957.33;105503;1275;20467;-69
2023/01/02 06:08:22;;;;;;;;;2.00;2.00;;;;;20.25;61.65;100963.02;105451;1301;19349;-68
2023/01/02 06:10:50;;;;;;;;;1.00;1.00;;;;;20.25;61.86;100975.15;105521;1297;19680;-68
2023/01/02 06:13:17;;;;;;;;;1.00;1.00;;;;;20.25;61.81;100979.71;105571;1297;22590;-67
2023/01/02 06:15:44;;;;;;;;;2.00;2.00;;;;;20.24;61.64;100987.41;105442;1291;19580;-67
2023/01/02 06:18:12;;;;;;;;;2.00;2.00;;;;;20.26;61.82;100985.27;105514;1297;18374;-68
2023/01/02 06:20:39;;;;;;;;;2.00;2.00;;;;;20.25;61.63;100978.98;105473;1297;21521;-69
2023/01/02 06:23:07;;;;;;;;;2.00;2.00;;;;;20.26;61.64;100978.73;105480;1282;20772;-67
2023/01/02 06:25:34;;;;;;;;;;;;;;;20.26;61.45;100977.60;105586;1289;19894;-68
2023/01/02 06:28:01;;;;;;;;;2.00;2.00;;;;;20.24;61.54;100982.17;105443;1292;18352;-67
2023/01/02 06:30:29;;;;;;;;;2.00;2.00;;;;;20.25;61.53;100987.17;105454;1300;19621;-68
2023/01/02 06:32:56;;;;;;;;;5.00;4.00;;;;;20.25;61.64;100990.20;105570;1282;18388;-66
2023/01/02 06:35:24;;;;;;;;;1.00;1.00;;;;;20.25;61.68;100979.55;105263;1282;18636;-69
2023/01/02 06:37:51;;;;;;;;;2.00;2.00;;;;;20.26;61.61;100973.86;105454;1289;19270;-69
2023/01/02 06:40:19;;;;;;;;;2.00;2.00;;;;;20.26;61.79;100968.58;105437;1282;22135;-69
2023/01/02 06:42:46;;;;;;;;;2.00;2.00;;;;;20.27;61.59;100968.23;105568;1282;18630;-68
2023/01/02 06:45:13;;;;;;;;;1.00;1.00;;;;;20.28;61.57;100965.47;105523;1297;19457;-67
2023/01/02 06:47:41;;;;;;;;;2.00;2.00;;;;;20.28;61.75;100960.33;105492;1275;23521;-68
2023/01/02 06:50:08;;;;;;;;;2.00;2.00;;;;;20.28;61.65;100960.92;105539;1301;18475;-67
2023/01/02 06:52:36;;;;;;;;;3.00;3.00;;;;;20.29;61.79;100957.20;105498;1289;19421;-67
2023/01/02 06:55:03;;;;;;;;;5.00;2.00;;;;;20.28;61.63;100955.31;105462;1292;18557;-67
2023/01/02 06:57:31;;;;;;;;;2.00;2.00;;;;;20.28;61.62;100949.83;105431;1301;18679;-68
2023/01/02 06:59:58;;;;;;;;;2.00;2.00;;;;;20.27;61.59;100946.86;105457;1282;19523;-68
2023/01/02 07:02:25;;;;;;;;;5.00;4.00;;;;;20.28;61.73;100954.92;105449;1289;18848;-69
2023/01/02 07:04:53;;;;;;;;;14.00;14.00;;;;;20.19;61.36;100958.31;105501;1275;18529;-68
2023/01/02 07:07:20;;;;;;;;;11.00;10.00;;;;;20.10;60.30;100952.52;105496;1282;19674;-68
2023/01/02 07:09:48;;;;;;;;;8.00;7.00;;;;;20.12;60.01;100948.54;105498;1282;18849;-68
2023/01/02 07:12:15;;;;;;;;;8.00;5.00;;;;;20.14;59.87;100940.81;105460;1298;18825;-68
2023/01/02 07:14:43;;;;;;;;;6.00;6.00;;;;;20.16;59.86;100947.68;105507;1291;19571;-68
2023/01/02 07:17:10;;;;;;;;;;;;;;;20.17;59.66;100930.72;105512;1297;20213;-68
2023/01/02 07:19:38;;;;;;;;;7.00;5.00;;;;;20.20;59.98;100923.84;105348;1284;22418;-68
2023/01/02 07:22:05;;;;;;;;;10.00;8.00;;;;;20.23;60.09;100928.24;105452;1275;21021;-69
2023/01/02 07:24:32;;;;;;;;;5.00;5.00;;;;;20.24;60.11;100915.22;105421;1284;19561;-71
2023/01/02 07:27:00;;;;;;;;;5.50;4.50;;;;;20.27;60.10;100909.13;105481;1298;18917;-68
2023/01/02 07:29:28;;;;;;;;;7.00;5.00;;;;;20.30;60.26;100919.88;105436;1289;19472;-69
2023/01/02 07:31:56;;;;;;;;;5.00;4.00;;;;;20.31;60.33;100926.61;105506;1275;18451;-69
2023/01/02 07:34:23;;;;;;;;;;;;;;;20.32;60.42;100923.41;105468;1282;18516;-69
2023/01/02 07:37:00;;;;;;;;;4.00;4.00;;;;;20.32;60.46;100922.90;105526;1281;19148;-68
2023/01/02 07:39:28;;;;;;;;;4.00;4.00;;;;;20.31;60.56;100925.22;105607;1297;20756;-69
2023/01/02 07:41:55;;;;;;;;;4.00;4.00;;;;;20.31;60.58;100912.09;105414;1282;20106;-66
2023/01/02 07:44:23;;;;;;;;;5.00;5.00;;;;;20.32;61.00;100916.88;105426;1283;19720;-68
2023/01/02 07:46:50;;;;;;;;;4.67;4.67;;;;;20.34;61.18;100917.44;105396;1274;19612;-68
2023/01/02 07:49:17;;;;;;;;;4.00;4.00;;;;;20.34;61.01;100918.82;105521;1299;18944;-68
2023/01/02 07:51:45;;;;;;;;;4.00;4.00;;;;;20.36;61.15;100916.82;105385;1282;19279;-68
2023/01/02 07:54:12;;;;;;;;;5.00;5.00;;;;;20.36;61.31;100921.20;105491;1284;19834;-68
2023/01/02 07:56:40;;;;;;;;;4.50;4.00;;;;;20.37;61.07;100911.44;105369;1298;18957;-69
2023/01/02 07:59:07;;;;;;;;;2.00;2.00;;;;;20.37;61.29;100912.73;105416;1297;20816;-68
2023/01/02 08:01:34;;;;;;;;;2.00;2.00;;;;;20.38;61.51;100914.41;105408;1304;23939;-68
2023/01/02 08:04:02;;;;;;;;;4.00;2.00;;;;;20.38;61.56;100911.09;105365;1294;18702;-71
2023/01/02 08:06:30;;;;;;;;;4.00;4.00;;;;;20.39;61.72;100913.39;105350;1275;19616;-72
2023/01/02 08:08:57;;;;;;;;;2.00;2.00;;;;;20.38;61.60;100911.73;105491;1289;18557;-70
2023/01/02 08:11:25;;;;;;;;;4.00;4.00;;;;;20.37;61.60;100910.35;105531;1291;18638;-69
2023/01/02 08:13:52;;;;;;;;;3.00;3.00;;;;;20.36;61.58;100905.96;105474;1282;19537;-69
2023/01/02 08:16:20;;;;;;;;;4.00;2.00;;;;;20.35;61.60;100905.09;105486;1282;19596;-69
2023/01/02 08:18:50;;;;;;;;;4.00;3.00;;;;;20.35;61.63;100903.00;105320;1282;18593;-69
2023/01/02 08:21:17;;;;;;;;;4.00;4.00;;;;;20.36;61.72;100898.44;105356;1282;19277;-69
2023/01/02 08:23:45;;;;;;;;;7.50;7.00;;;;;20.38;61.81;100907.02;105395;1282;18426;-69
2023/01/02 08:26:13;;;;;;;;;2.00;2.00;;;;;20.43;61.35;100907.46;105428;1282;20136;-69
2023/01/02 08:28:40;;;;;;;;;2.00;2.00;;;;;20.44;61.46;100905.73;105413;1275;19238;-68
2023/01/02 08:31:08;;;;;;;;;5.00;4.00;;;;;20.44;61.70;100908.13;105499;1282;18396;-67
2023/01/02 08:33:35;;;;;;;;;2.00;2.00;;;;;20.44;61.95;100905.15;105394;1282;18507;-69
2023/01/02 08:36:02;;;;;;;;;5.00;4.00;;;;;20.43;62.14;100909.91;105429;1291;20960;-70
2023/01/02 08:38:30;;;;;;;;;;;;;;;20.38;62.07;100902.75;105513;1289;20078;-68
2023/01/02 08:40:58;;;;;;;;;4.00;4.00;;;;;20.39;62.10;100906.64;105484;1298;22750;-69
2023/01/02 08:43:26;;;;;;;;;2.00;2.00;;;;;20.41;61.99;100907.19;105562;1297;19470;-69
2023/01/02 08:45:53;;;;;;;;;4.50;3.00;;;;;20.43;62.19;100913.23;105439;1285;22440;-68
2023/01/02 08:48:21;;;;;;;;;3.00;2.00;;;;;20.46;62.06;100917.70;105395;1304;18697;-68
2023/01/02 08:50:48;;;;;;;;;2.00;2.00;;;;;20.46;62.13;100908.99;105440;1282;19210;-68
2023/01/02 08:53:16;;;;;;;;;4.50;4.00;;;;;20.46;62.29;100909.16;105491;1297;18541;-67
2023/01/02 08:55:43;;;;;;;;;2.00;2.00;;;;;20.48;62.42;100912.17;105438;1300;19912;-68
2023/01/02 08:58:11;;;;;;;;;2.00;2.00;;;;;20.50;62.27;100913.27;105418;1282;22742;-66
2023/01/02 09:00:38;;;;;;;;;4.00;2.00;;;;;20.50;62.25;100915.27;105311;1297;18563;-70
2023/01/02 09:03:06;;;;;;;;;4.00;4.00;;;;;20.51;62.44;100915.17;105502;1297;22348;-68
2023/01/02 09:05:33;;;;;;;;;4.00;4.00;;;;;20.52;62.39;100914.13;105459;1275;19917;-68
2023/01/02 09:08:00;;;;;;;;;2.00;2.00;;;;;20.53;62.52;100905.35;105445;1297;22802;-68
2023/01/02 09:10:28;;;;;;;;;3.00;2.00;;;;;20.52;62.43;100907.02;105475;1298;18702;-68
2023/01/02 09:12:57;;;;;;;;;2.00;2.00;;;;;20.52;62.39;100907.95;105391;1281;19590;-68
2023/01/02 09:15:25;;;;;;;;;4.00;4.00;;;;;20.53;62.36;100910.62;106025;1290;19478;-67
2023/01/02 09:17:52;;;;;;;;;4.00;4.00;;;;;20.53;62.39;100906.91;105518;1297;18741;-67
2023/01/02 09:20:20;;;;;;;;;2.67;2.67;;;;;20.52;62.37;100908.48;105514;1297;19490;-68
2023/01/02 09:22:47;;;;;;;;;4.00;4.00;;;;;20.53;62.25;100916.71;105498;1297;19818;-68
2023/01/02 09:25:15;;;;;;;;;4.00;2.00;;;;;20.53;62.45;100915.84;105422;1283;19957;-67
2023/01/02 09:27:42;;;;;;;;;5.00;4.00;;;;;20.53;62.59;100916.55;105400;1297;19577;-67
2023/01/02 09:30:09;;;;;;;;;4.00;3.00;;;;;20.52;62.28;100910.85;105457;1298;18514;-67
2023/01/02 09:32:37;;;;;;;;;5.00;4.00;;;;;20.54;62.48;100909.80;105483;1282;18759;-68
2023/01/02 09:35:04;;;;;;;;;4.00;2.00;;;;;20.55;62.39;100903.67;105447;1282;19461;-67
2023/01/02 09:37:32;;;;;;;;;7.00;4.00;;;;;20.54;62.35;100904.70;105548;1275;19883;-67
2023/01/02 09:39:59;;;;;;;;;5.00;4.00;;;;;20.53;62.27;100905.71;105445;1282;18545;-67
2023/01/02 09:42:27;;;;;;;;;4.00;2.00;;;;;20.53;62.31;100914.70;105491;1297;19676;-67
2023/01/02 09:44:54;;;;;;;;;2.00;2.00;;;;;20.56;62.59;100909.72;105408;1282;18402;-66
2023/01/02 09:47:22;;;;;;;;;2.00;2.00;;;;;20.56;62.35;100903.02;105447;1298;18773;-68
2023/01/02 09:49:50;;;;;;;;;2.00;2.00;;;;;20.55;62.29;100900.16;105397;1282;23901;-68
2023/01/02 09:52:17;;;;;;;;;2.00;2.00;;;;;20.56;62.52;100898.66;105443;1296;18514;-67
2023/01/02 09:54:45;;;;;;;;;2.00;2.00;;;;;20.57;62.48;100897.10;105532;1282;18730;-66
2023/01/02 09:57:12;;;;;;;;;4.00;4.00;;;;;20.60;62.64;100896.99;105516;1301;23186;-67
2023/01/02 09:59:40;;;;;;;;;2.00;2.00;;;;;20.60;62.86;100894.20;105444;1282;18410;-66
2023/01/02 10:02:07;;;;;;;;;2.00;2.00;;;;;20.60;62.88;100896.38;105474;1279;18583;-68
2023/01/02 10:04:35;;;;;;;;;2.00;2.00;;;;;20.61;63.05;100895.73;105404;1275;20939;-66
2023/01/02 10:07:02;;;;;;;;;5.00;4.00;;;;;20.62;63.03;100894.73;105384;1289;22726;-67
2023/01/02 10:09:30;;;;;;;;;2.00;2.00;;;;;20.62;63.08;100885.45;105463;1298;18492;-67
2023/01/02 10:11:57;;;;;;;;;2.00;2.00;;;;;20.61;62.95;100881.95;105447;1289;19575;-67
2023/01/02 10:14:25;;;;;;;;;4.00;4.00;;;;;20.60;63.29;100879.02;105403;1289;21952;-67
2023/01/02 10:16:52;;;;;;;;;4.00;4.00;;;;;20.60;63.16;100864.76;105358;1275;18613;-67
2023/01/02 10:19:20;;;;;;;;;2.00;2.00;;;;;20.61;63.31;100865.60;105468;1298;20692;-69
2023/01/02 10:21:47;;;;;;;;;4.67;4.00;;;;;20.61;63.54;100858.28;105385;1284;19601;-67
2023/01/02 10:24:15;;;;;;;;;5.00;4.00;;;;;20.63;63.82;100851.45;105459;1297;18714;-69
2023/01/02 10:26:42;;;;;;;;;4.00;4.00;;;;;20.65;64.03;100851.04;105466;1282;20992;-67
2023/01/02 10:29:10;;;;;;;;;4.00;4.00;;;;;20.65;64.20;100854.09;105481;1290;18684;-67
2023/01/02 10:31:38;;;;;;;;;7.00;7.00;;;;;20.68;64.87;100857.04;105423;1298;20030;-67
2023/01/02 10:34:07;;;;;;;;;;;;;;;20.69;64.97;100856.70;105444;1275;19666;-67
2023/01/02 10:36:35;;;;;;;;;130.50;112.50;;;;;20.73;65.48;100864.25;105492;1298;19596;-66
2023/01/02 10:39:02;;;;;;;;;;;;;;;20.74;65.47;100872.22;105324;1294;19250;-67
2023/01/02 10:41:30;;;;;;;;;82.00;65.00;;;;;20.65;64.74;100860.55;105441;1291;19770;-67
2023/01/02 10:43:57;;;;;;;;;;;;;;;20.60;64.34;100870.23;105485;1297;20117;-67
2023/01/02 10:46:25;;;;;;;;;56.00;44.00;;;;;20.57;63.91;100870.84;105407;1281;20094;-67
2023/01/02 10:48:52;;;;;;;;;43.50;37.50;;;;;20.56;63.45;100868.13;105411;1289;20519;-67
2023/01/02 10:51:20;;;;;;;;;44.00;35.00;;;;;20.58;63.07;100873.16;105516;1297;22305;-68
2023/01/02 10:53:47;;;;;;;;;39.00;31.00;;;;;20.59;62.67;100873.10;105385;1282;18736;-68
2023/01/02 10:56:15;;;;;;;;;32.00;31.00;;;;;20.58;62.09;100868.30;105459;1292;22346;-68
2023/01/02 10:58:43;;;;;;;;;30.50;27.50;;;;;20.54;61.96;100861.42;105500;1289;19782;-68
2023/01/02 11:01:12;;;;;;;;;;;;;;;20.51;61.58;100860.16;105416;1294;18887;-67
2023/01/02 11:03:39;;;;;;;;;24.50;23.50;;;;;20.50;61.12;100860.64;105523;1297;19269;-69
2023/01/02 11:06:08;;;;;;;;;22.50;20.00;;;;;20.48;60.58;100857.39;105568;1297;20990;-68
2023/01/02 11:08:35;;;;;;;;;20.00;18.00;;;;;20.48;60.23;100856.88;105478;1289;19735;-68
2023/01/02 11:11:03;;;;;;;;;17.50;17.00;;;;;20.47;59.94;100862.73;105456;1282;19269;-66
2023/01/02 11:13:31;;;;;;;;;20.00;18.00;;;;;20.46;59.66;100855.42;105400;1289;22757;-68
2023/01/02 11:15:58;;;;;;;;;16.50;16.50;;;;;20.45;59.22;100851.16;105510;1281;18606;-67
2023/01/02 11:18:26;;;;;;;;;15.00;14.00;;;;;20.44;58.91;100849.26;105453;1275;19160;-67
2023/01/02 11:20:54;;;;;;;;;18.00;14.00;;;;;20.43;58.85;100854.46;105497;1289;19534;-67
2023/01/02 11:23:22;;;;;;;;;14.00;13.00;;;;;20.39;58.44;100843.86;105515;1291;22173;-67
2023/01/02 11:25:50;;;;;;;;;20.00;18.00;;;;;20.21;56.82;100845.36;105450;1298;19753;-67